createdAt,value
2023-04-11T00:00:45.545Z,13.51
2023-04-11T00:01:50.178Z,13.30
2023-04-11T00:02:52.896Z,13.44
2023-04-11T00:03:57.138Z,13.56
2023-04-11T00:05:01.232Z,13.45
2023-04-11T00:06:05.190Z,13.44
2023-04-11T00:07:07.949Z,13.52
2023-04-11T00:08:11.313Z,13.47
2023-04-11T00:09:14.288Z,13.44
2023-04-11T00:10:18.129Z,13.51
2023-04-11T00:11:21.178Z,13.52
2023-04-11T00:12:24.716Z,13.71
2023-04-11T00:13:27.059Z,13.45
2023-04-11T00:14:32.425Z,13.35
2023-04-11T00:15:39.493Z,13.31
2023-04-11T00:16:43.584Z,13.30
2023-04-11T00:17:46.026Z,13.47
2023-04-11T00:18:49.390Z,13.47
2023-04-11T00:19:53.498Z,13.51
2023-04-11T00:20:56.761Z,13.40
2023-04-11T00:21:59.048Z,13.15
2023-04-11T00:23:02.622Z,13.17
2023-04-11T00:24:06.927Z,13.22
2023-04-11T00:25:11.110Z,13.38
2023-04-11T00:26:13.544Z,13.21
2023-04-11T00:27:17.183Z,13.33
2023-04-11T00:28:19.536Z,13.24
2023-04-11T00:29:22.903Z,13.31
2023-04-11T00:30:25.380Z,13.35
2023-04-11T00:31:30.635Z,13.26
2023-04-11T00:32:33.037Z,13.34
2023-04-11T00:33:38.620Z,13.27
2023-04-11T00:34:42.580Z,13.38
2023-04-11T00:35:46.373Z,13.44
2023-04-11T00:36:49.687Z,13.24
2023-04-11T00:37:56.420Z,13.13
2023-04-11T00:39:01.441Z,13.11
2023-04-11T00:40:07.793Z,13.11
2023-04-11T00:41:10.501Z,13.01
2023-04-11T00:42:14.572Z,13.08
2023-04-11T00:43:16.834Z,13.07
2023-04-11T00:44:20.413Z,13.23
2023-04-11T00:45:22.854Z,13.28
2023-04-11T00:46:28.216Z,13.35
2023-04-11T00:47:33.594Z,13.41
2023-04-11T00:48:37.361Z,13.48
2023-04-11T00:49:41.228Z,13.40
2023-04-11T00:50:45.126Z,13.27
2023-04-11T00:51:48.010Z,13.52
2023-04-11T00:52:53.142Z,13.67
2023-04-11T00:53:55.655Z,13.68
2023-04-11T00:54:59.704Z,13.62
2023-04-11T00:56:02.259Z,13.71
2023-04-11T00:57:07.254Z,13.78
2023-04-11T00:58:09.627Z,13.59
2023-04-11T00:59:13.717Z,13.71
2023-04-11T01:00:16.742Z,13.66
2023-04-11T01:01:25.026Z,13.78
2023-04-11T01:02:28.173Z,13.59
2023-04-11T01:03:33.315Z,13.74
2023-04-11T01:04:36.647Z,13.82
2023-04-11T01:05:40.242Z,13.71
2023-04-11T01:06:42.759Z,13.70
2023-04-11T01:07:50.600Z,13.63
2023-04-11T01:08:53.776Z,13.75
2023-04-11T01:09:58.799Z,13.80
2023-04-11T01:11:02.736Z,13.83
2023-04-11T01:12:07.767Z,13.65
2023-04-11T01:13:10.989Z,13.49
2023-04-11T01:14:14.632Z,13.26
2023-04-11T01:15:18.346Z,13.20
2023-04-11T01:16:21.937Z,13.29
2023-04-11T01:17:27.419Z,13.16
2023-04-11T01:18:32.177Z,13.31
2023-04-11T01:19:36.266Z,13.11
2023-04-11T01:20:38.839Z,13.26
2023-04-11T01:21:43.350Z,13.45
2023-04-11T01:22:47.441Z,13.40
2023-04-11T01:23:54.502Z,13.25
2023-04-11T01:24:57.343Z,13.35
2023-04-11T01:26:01.190Z,13.46
2023-04-11T01:27:04.289Z,13.44
2023-04-11T01:28:08.940Z,13.55
2023-04-11T01:29:11.768Z,13.75
2023-04-11T01:30:16.598Z,13.56
2023-04-11T01:31:19.310Z,13.43
2023-04-11T01:32:23.013Z,13.35
2023-04-11T01:33:25.872Z,13.28
2023-04-11T01:34:30.236Z,13.38
2023-04-11T01:35:34.384Z,13.48
2023-04-11T01:36:37.816Z,13.50
2023-04-11T01:37:45.303Z,13.42
2023-04-11T01:38:49.896Z,13.68
2023-04-11T01:39:54.289Z,13.74
2023-04-11T01:40:59.163Z,13.87
2023-04-11T01:42:03.756Z,14.02
2023-04-11T01:43:08.752Z,14.11
2023-04-11T01:44:11.966Z,14.04
2023-04-11T01:45:15.732Z,13.94
2023-04-11T01:46:18.142Z,13.48
2023-04-11T01:47:21.615Z,13.72
2023-04-11T01:48:24.267Z,13.85
2023-04-11T01:49:27.927Z,14.00
2023-04-11T01:50:30.624Z,14.14
2023-04-11T01:51:34.215Z,14.14
2023-04-11T01:52:36.936Z,14.19
2023-04-11T01:53:40.661Z,14.27
2023-04-11T01:54:43.226Z,14.28
2023-04-11T01:55:48.040Z,14.21
2023-04-11T01:56:50.581Z,14.16
2023-04-11T01:57:54.147Z,14.15
2023-04-11T01:58:59.189Z,14.05
2023-04-11T02:00:02.546Z,13.62
2023-04-11T02:01:05.770Z,13.33
2023-04-11T02:02:09.422Z,13.00
2023-04-11T02:03:12.531Z,12.80
2023-04-11T02:04:16.806Z,13.05
2023-04-11T02:05:20.915Z,13.27
2023-04-11T02:06:24.267Z,13.55
2023-04-11T02:07:27.641Z,13.61
2023-04-11T02:08:31.079Z,13.76
2023-04-11T02:09:33.544Z,13.82
2023-04-11T02:10:36.983Z,13.77
2023-04-11T02:11:41.143Z,13.65
2023-04-11T02:12:44.500Z,13.56
2023-04-11T02:13:47.217Z,13.70
2023-04-11T02:14:50.762Z,13.75
2023-04-11T02:15:53.032Z,13.73
2023-04-11T02:16:57.606Z,13.62
2023-04-11T02:18:00.498Z,13.55
2023-04-11T02:19:04.291Z,13.67
2023-04-11T02:20:08.630Z,13.75
2023-04-11T02:21:12.128Z,13.83
2023-04-11T02:22:14.986Z,13.90
2023-04-11T02:23:18.402Z,13.86
2023-04-11T02:24:20.799Z,13.95
2023-04-11T02:25:24.138Z,13.92
2023-04-11T02:26:27.057Z,13.92
2023-04-11T02:27:32.083Z,13.84
2023-04-11T02:28:34.848Z,13.96
2023-04-11T02:29:38.499Z,14.01
2023-04-11T02:30:41.529Z,13.95
2023-04-11T02:31:44.937Z,13.97
2023-04-11T02:32:49.556Z,14.01
2023-04-11T02:33:53.008Z,14.10
2023-04-11T02:34:56.209Z,14.03
2023-04-11T02:36:00.341Z,13.89
2023-04-11T02:37:03.218Z,14.01
2023-04-11T02:38:06.909Z,13.82
2023-04-11T02:39:09.418Z,13.77
2023-04-11T02:40:13.686Z,13.51
2023-04-11T02:41:16.244Z,13.56
2023-04-11T02:42:19.891Z,13.30
2023-04-11T02:43:25.092Z,13.27
2023-04-11T02:44:29.568Z,13.39
2023-04-11T02:45:33.165Z,13.04
2023-04-11T02:46:35.697Z,13.27
2023-04-11T02:47:39.435Z,13.35
2023-04-11T02:48:41.854Z,13.06
2023-04-11T02:49:45.253Z,13.27
2023-04-11T02:50:47.653Z,13.46
2023-04-11T02:51:51.236Z,13.52
2023-04-11T02:52:53.880Z,13.57
2023-04-11T02:53:57.521Z,13.34
2023-04-11T02:54:59.933Z,13.18
2023-04-11T02:56:03.548Z,12.72
2023-04-11T02:57:07.094Z,12.75
2023-04-11T02:58:09.403Z,12.91
2023-04-11T02:59:14.178Z,13.07
2023-04-11T03:00:17.235Z,12.78
2023-04-11T03:01:21.818Z,13.00
2023-04-11T03:02:24.791Z,13.13
2023-04-11T03:03:28.539Z,13.11
2023-04-11T03:04:31.800Z,12.99
2023-04-11T03:05:35.509Z,13.16
2023-04-11T03:06:38.231Z,13.16
2023-04-11T03:07:42.234Z,12.81
2023-04-11T03:08:44.730Z,12.78
2023-04-11T03:09:48.194Z,12.66
2023-04-11T03:10:50.611Z,12.52
2023-04-11T03:11:54.180Z,12.65
2023-04-11T03:12:56.638Z,12.61
2023-04-11T03:14:00.182Z,12.52
2023-04-11T03:15:05.085Z,12.45
2023-04-11T03:16:09.424Z,12.40
2023-04-11T03:17:11.798Z,12.31
2023-04-11T03:18:15.205Z,12.47
2023-04-11T03:19:17.479Z,12.59
2023-04-11T03:20:21.764Z,12.52
2023-04-11T03:21:24.051Z,12.39
2023-04-11T03:22:27.427Z,12.63
2023-04-11T03:23:30.348Z,12.61
2023-04-11T03:24:33.652Z,12.38
2023-04-11T03:25:37.884Z,12.38
2023-04-11T03:26:42.055Z,12.54
2023-04-11T03:27:44.732Z,12.58
2023-04-11T03:28:48.204Z,12.52
2023-04-11T03:29:50.680Z,12.63
2023-04-11T03:30:55.815Z,12.51
2023-04-11T03:31:58.517Z,12.35
2023-04-11T03:33:01.980Z,12.26
2023-04-11T03:34:04.733Z,12.42
2023-04-11T03:35:08.580Z,12.38
2023-04-11T03:36:12.411Z,12.24
2023-04-11T03:37:14.857Z,12.28
2023-04-11T03:38:18.571Z,12.33
2023-04-11T03:39:22.160Z,12.15
2023-04-11T03:40:25.732Z,12.19
2023-04-11T03:41:28.674Z,12.13
2023-04-11T03:42:32.035Z,12.27
2023-04-11T03:43:34.394Z,12.20
2023-04-11T03:44:38.181Z,12.22
2023-04-11T03:45:41.220Z,11.98
2023-04-11T03:46:46.176Z,12.23
2023-04-11T03:47:48.562Z,12.12
2023-04-11T03:48:52.311Z,12.10
2023-04-11T03:49:54.630Z,12.31
2023-04-11T03:50:58.634Z,12.40
2023-04-11T03:52:01.635Z,12.41
2023-04-11T03:53:05.242Z,12.53
2023-04-11T03:54:07.681Z,12.42
2023-04-11T03:55:11.511Z,12.54
2023-04-11T03:56:13.962Z,12.09
2023-04-11T03:57:17.405Z,11.91
2023-04-11T03:58:20.160Z,11.93
2023-04-11T03:59:24.164Z,12.01
2023-04-11T04:00:27.192Z,12.03
2023-04-11T04:01:32.228Z,12.05
2023-04-11T04:02:36.470Z,12.08
2023-04-11T04:03:40.328Z,11.94
2023-04-11T04:04:49.134Z,12.05
2023-04-11T04:05:52.614Z,12.13
2023-04-11T04:06:57.114Z,12.01
2023-04-11T04:08:00.886Z,11.94
2023-04-11T04:09:04.371Z,12.14
2023-04-11T04:10:08.816Z,12.09
2023-04-11T04:11:11.019Z,12.04
2023-04-11T04:12:14.737Z,11.95
2023-04-11T04:13:17.196Z,12.13
2023-04-11T04:14:20.761Z,12.09
2023-04-11T04:15:23.402Z,12.04
2023-04-11T04:16:26.860Z,12.31
2023-04-11T04:17:29.440Z,12.33
2023-04-11T04:18:34.880Z,12.28
2023-04-11T04:19:37.770Z,12.30
2023-04-11T04:20:43.069Z,12.37
2023-04-11T04:21:46.025Z,12.23
2023-04-11T04:22:49.383Z,12.15
2023-04-11T04:23:51.723Z,12.00
2023-04-11T04:24:58.274Z,11.90
2023-04-11T04:26:02.387Z,11.74
2023-04-11T04:27:09.128Z,11.84
2023-04-11T04:28:12.992Z,11.84
2023-04-11T04:29:18.229Z,11.83
2023-04-11T04:30:22.158Z,12.10
2023-04-11T04:31:29.869Z,12.13
2023-04-11T04:32:32.791Z,12.18
2023-04-11T04:33:37.751Z,12.20
2023-04-11T04:34:46.756Z,12.27
2023-04-11T04:35:51.658Z,12.33
2023-04-11T04:36:56.770Z,12.47
2023-04-11T04:38:06.404Z,12.34
2023-04-11T04:39:10.104Z,12.49
2023-04-11T04:40:14.729Z,12.39
2023-04-11T04:41:17.198Z,12.42
2023-04-11T04:42:20.716Z,12.31
2023-04-11T04:43:24.664Z,12.20
2023-04-11T04:44:29.428Z,12.40
2023-04-11T04:45:31.952Z,12.27
2023-04-11T04:46:37.063Z,12.36
2023-04-11T04:47:39.383Z,12.31
2023-04-11T04:48:44.171Z,12.32
2023-04-11T04:49:46.674Z,12.14
2023-04-11T04:50:50.802Z,12.20
2023-04-11T04:51:53.137Z,12.24
2023-04-11T04:52:56.833Z,12.16
2023-04-11T04:53:59.931Z,12.20
2023-04-11T04:55:04.053Z,12.35
2023-04-11T04:56:07.670Z,12.39
2023-04-11T04:57:11.425Z,12.50
2023-04-11T04:58:14.498Z,12.61
2023-04-11T04:59:18.861Z,12.66
2023-04-11T05:00:23.244Z,12.76
2023-04-11T05:01:27.844Z,12.72
2023-04-11T05:02:30.956Z,12.75
2023-04-11T05:03:35.845Z,12.73
2023-04-11T05:04:39.921Z,12.79
2023-04-11T05:05:43.586Z,12.85
2023-04-11T05:06:45.936Z,12.90
2023-04-11T05:07:49.947Z,12.95
2023-04-11T05:08:53.665Z,12.91
2023-04-11T05:09:57.633Z,12.99
2023-04-11T05:11:00.231Z,13.06
2023-04-11T05:12:05.166Z,12.99
2023-04-11T05:13:09.733Z,12.94
2023-04-11T05:14:13.162Z,12.42
2023-04-11T05:15:15.572Z,12.64
2023-04-11T05:16:18.993Z,12.34
2023-04-11T05:17:22.790Z,12.09
2023-04-11T05:18:29.570Z,12.38
2023-04-11T05:19:32.480Z,12.33
2023-04-11T05:20:38.405Z,12.31
2023-04-11T05:21:40.933Z,12.15
2023-04-11T05:22:44.644Z,12.01
2023-04-11T05:23:47.223Z,12.31
2023-04-11T05:24:50.853Z,12.37
2023-04-11T05:25:53.214Z,12.32
2023-04-11T05:26:56.761Z,12.34
2023-04-11T05:27:59.270Z,12.43
2023-04-11T05:29:02.956Z,12.48
2023-04-11T05:30:06.440Z,12.53
2023-04-11T05:31:12.253Z,12.36
2023-04-11T05:32:16.159Z,12.31
2023-04-11T05:33:18.687Z,12.34
2023-04-11T05:34:22.467Z,12.35
2023-04-11T05:35:25.342Z,12.31
2023-04-11T05:36:30.169Z,12.24
2023-04-11T05:37:32.880Z,12.25
2023-04-11T05:38:36.200Z,12.54
2023-04-11T05:39:38.389Z,12.44
2023-04-11T05:40:41.740Z,12.16
2023-04-11T05:41:45.250Z,12.36
2023-04-11T05:42:47.567Z,12.56
2023-04-11T05:43:50.993Z,12.60
2023-04-11T05:44:53.567Z,12.67
2023-04-11T05:45:57.556Z,12.62
2023-04-11T05:47:00.970Z,12.55
2023-04-11T05:48:04.466Z,12.74
2023-04-11T05:49:07.923Z,12.89
2023-04-11T05:50:12.154Z,12.88
2023-04-11T05:51:14.549Z,12.98
2023-04-11T05:52:19.677Z,13.09
2023-04-11T05:53:23.111Z,13.21
2023-04-11T05:54:32.949Z,13.19
2023-04-11T05:55:36.973Z,13.00
2023-04-11T05:56:42.589Z,12.77
2023-04-11T05:57:45.262Z,12.70
2023-04-11T05:58:48.804Z,12.69
2023-04-11T05:59:53.222Z,12.72
2023-04-11T06:00:57.863Z,12.73
2023-04-11T06:02:01.037Z,12.63
2023-04-11T06:03:05.289Z,12.77
2023-04-11T06:04:08.938Z,13.01
2023-04-11T06:05:12.221Z,13.06
2023-04-11T06:06:15.950Z,13.18
2023-04-11T06:07:20.077Z,13.04
2023-04-11T06:08:23.642Z,12.87
2023-04-11T06:09:26.902Z,12.68
2023-04-11T06:10:31.757Z,12.78
2023-04-11T06:11:34.432Z,12.90
2023-04-11T06:12:38.200Z,13.13
2023-04-11T06:13:41.978Z,13.28
2023-04-11T06:14:44.257Z,13.26
2023-04-11T06:15:47.940Z,13.27
2023-04-11T06:16:51.564Z,13.42
2023-04-11T06:17:54.315Z,13.47
2023-04-11T06:18:57.862Z,13.59
2023-04-11T06:20:00.198Z,13.65
2023-04-11T06:21:03.729Z,13.80
2023-04-11T06:22:06.098Z,13.96
2023-04-11T06:23:11.430Z,14.10
2023-04-11T06:24:15.866Z,14.25
2023-04-11T06:25:20.571Z,14.43
2023-04-11T06:26:24.362Z,14.59
2023-04-11T06:27:27.131Z,14.65
2023-04-11T06:28:30.806Z,14.58
2023-04-11T06:29:33.122Z,14.58
2023-04-11T06:30:36.350Z,14.52
2023-04-11T06:31:38.606Z,14.57
2023-04-11T06:32:42.498Z,14.59
2023-04-11T06:33:45.876Z,14.48
2023-04-11T06:34:49.248Z,14.52
2023-04-11T06:35:53.246Z,14.55
2023-04-11T06:36:55.663Z,14.53
2023-04-11T06:37:59.006Z,14.53
2023-04-11T06:39:05.796Z,14.59
2023-04-11T06:40:10.623Z,14.60
2023-04-11T06:41:13.361Z,14.69
2023-04-11T06:42:16.692Z,14.75
2023-04-11T06:43:20.964Z,14.69
2023-04-11T06:44:23.713Z,14.79
2023-04-11T06:45:27.442Z,14.78
2023-04-11T06:46:29.912Z,14.92
2023-04-11T06:47:33.420Z,14.94
2023-04-11T06:48:37.304Z,14.94
2023-04-11T06:49:39.703Z,15.09
2023-04-11T06:50:43.301Z,15.17
2023-04-11T06:51:47.606Z,15.04
2023-04-11T06:52:51.012Z,15.01
2023-04-11T06:53:54.385Z,15.02
2023-04-11T06:54:59.247Z,15.14
2023-04-11T06:56:01.600Z,15.16
2023-04-11T06:57:04.935Z,15.16
2023-04-11T06:58:08.266Z,15.32
2023-04-11T06:59:11.346Z,15.35
2023-04-11T07:00:16.493Z,15.38
2023-04-11T07:01:21.129Z,15.46
2023-04-11T07:02:25.912Z,15.45
2023-04-11T07:03:28.821Z,15.50
2023-04-11T07:04:32.469Z,15.64
2023-04-11T07:05:37.525Z,15.73
2023-04-11T07:06:42.307Z,15.92
2023-04-11T07:07:46.542Z,16.04
2023-04-11T07:08:49.122Z,16.21
2023-04-11T07:09:52.391Z,16.24
2023-04-11T07:10:57.187Z,16.34
2023-04-11T07:12:00.007Z,16.43
2023-04-11T07:13:03.475Z,16.52
2023-04-11T07:14:06.139Z,16.78
2023-04-11T07:15:11.218Z,17.00
2023-04-11T07:16:13.402Z,17.15
2023-04-11T07:17:18.161Z,17.62
2023-04-11T07:18:20.490Z,17.84
2023-04-11T07:19:23.954Z,18.51
2023-04-11T07:20:26.238Z,18.50
2023-04-11T07:21:30.343Z,18.89
2023-04-11T07:22:33.099Z,18.91
2023-04-11T07:23:36.491Z,18.69
2023-04-11T07:24:39.919Z,18.85
2023-04-11T07:25:43.078Z,18.96
2023-04-11T07:26:50.839Z,18.50
2023-04-11T07:27:54.599Z,18.53
2023-04-11T07:28:57.162Z,18.87
2023-04-11T07:30:00.458Z,18.53
2023-04-11T07:31:02.725Z,18.81
2023-04-11T07:32:06.914Z,18.81
2023-04-11T07:33:11.233Z,18.61
2023-04-11T07:34:14.494Z,18.58
2023-04-11T07:35:17.218Z,18.69
2023-04-11T07:36:20.854Z,18.63
2023-04-11T07:37:24.602Z,18.43
2023-04-11T07:38:29.940Z,18.39
2023-04-11T07:39:34.129Z,18.02
2023-04-11T07:40:36.698Z,17.83
2023-04-11T07:41:40.890Z,17.78
2023-04-11T07:42:46.629Z,17.59
2023-04-11T07:43:50.736Z,17.52
2023-04-11T07:44:54.810Z,17.55
2023-04-11T07:45:58.523Z,17.57
2023-04-11T07:47:03.411Z,17.41
2023-04-11T07:48:06.705Z,17.54
2023-04-11T07:49:10.038Z,17.77
2023-04-11T07:50:12.393Z,18.16
2023-04-11T07:51:17.144Z,18.37
2023-04-11T07:52:21.221Z,18.57
2023-04-11T07:53:23.945Z,18.56
2023-04-11T07:54:28.843Z,18.59
2023-04-11T07:55:31.570Z,19.00
2023-04-11T07:56:35.169Z,19.11
2023-04-11T07:57:37.578Z,19.03
2023-04-11T07:58:42.875Z,19.14
2023-04-11T07:59:46.504Z,19.12
2023-04-11T08:00:50.920Z,19.15
2023-04-11T08:02:00.710Z,18.72
2023-04-11T08:03:07.587Z,18.20
2023-04-11T08:04:11.287Z,18.31
2023-04-11T08:05:15.524Z,18.49
2023-04-11T08:06:19.164Z,18.46
2023-04-11T08:07:21.455Z,18.33
2023-04-11T08:08:24.810Z,18.22
2023-04-11T08:09:27.827Z,18.31
2023-04-11T08:10:31.323Z,18.34
2023-04-11T08:11:34.355Z,18.30
2023-04-11T08:12:38.098Z,18.82
2023-04-11T08:13:43.497Z,18.55
2023-04-11T08:14:46.811Z,18.71
2023-04-11T08:15:50.464Z,18.62
2023-04-11T08:16:53.862Z,18.29
2023-04-11T08:17:57.973Z,18.01
2023-04-11T08:19:00.250Z,17.82
2023-04-11T08:20:05.125Z,17.58
2023-04-11T08:21:09.223Z,17.33
2023-04-11T08:22:11.952Z,17.21
2023-04-11T08:23:15.538Z,17.49
2023-04-11T08:24:18.013Z,17.90
2023-04-11T08:25:23.143Z,18.10
2023-04-11T08:26:26.616Z,18.41
2023-04-11T08:27:29.488Z,18.48
2023-04-11T08:28:33.338Z,18.39
2023-04-11T08:29:37.087Z,18.65
2023-04-11T08:30:40.495Z,19.00
2023-04-11T08:31:45.170Z,18.74
2023-04-11T08:32:47.766Z,18.54
2023-04-11T08:33:51.497Z,18.59
2023-04-11T08:34:53.903Z,18.65
2023-04-11T08:35:57.491Z,18.93
2023-04-11T08:37:00.013Z,18.76
2023-04-11T08:38:03.918Z,18.84
2023-04-11T08:39:06.889Z,18.78
2023-04-11T08:40:11.966Z,19.06
2023-04-11T08:41:15.771Z,19.16
2023-04-11T08:42:26.374Z,19.45
2023-04-11T08:43:30.114Z,19.41
2023-04-11T08:44:32.777Z,19.59
2023-04-11T08:45:37.726Z,19.62
2023-04-11T08:46:44.299Z,19.27
2023-04-11T08:47:46.795Z,19.24
2023-04-11T08:48:50.427Z,19.31
2023-04-11T08:49:53.556Z,18.94
2023-04-11T08:50:56.923Z,18.86
2023-04-11T08:52:00.016Z,18.39
2023-04-11T08:53:05.047Z,18.37
2023-04-11T08:54:10.316Z,18.36
2023-04-11T08:55:13.336Z,18.35
2023-04-11T08:56:17.886Z,18.42
2023-04-11T08:57:26.261Z,18.07
2023-04-11T08:58:29.960Z,18.35
2023-04-11T08:59:33.551Z,18.47
2023-04-11T09:00:38.460Z,17.96
2023-04-11T09:01:41.203Z,18.13
2023-04-11T09:03:01.099Z,17.93
2023-04-11T09:04:06.422Z,18.10
2023-04-11T09:05:24.546Z,17.83
2023-04-11T09:06:31.043Z,17.94
2023-04-11T09:07:50.282Z,18.11
2023-04-11T09:08:53.749Z,18.32
2023-04-11T09:09:57.385Z,18.44
2023-04-11T09:11:01.668Z,18.37
2023-04-11T09:12:05.660Z,18.23
2023-04-11T09:13:21.474Z,18.16
2023-04-11T09:14:25.361Z,18.14
2023-04-11T09:15:30.469Z,18.19
2023-04-11T09:16:34.896Z,18.45
2023-04-11T09:17:42.987Z,18.08
2023-04-11T09:18:47.086Z,18.22
2023-04-11T09:19:50.502Z,18.39
2023-04-11T09:21:00.114Z,18.59
2023-04-11T09:22:06.259Z,18.29
2023-04-11T09:23:25.457Z,18.31
2023-04-11T09:24:31.983Z,18.32
2023-04-11T09:25:45.801Z,18.20
2023-04-11T09:26:48.112Z,18.27
2023-04-11T09:28:07.916Z,18.35
2023-04-11T09:29:10.596Z,18.37
2023-04-11T09:30:23.797Z,18.35
2023-04-11T09:31:41.989Z,18.57
2023-04-11T09:32:46.220Z,18.58
2023-04-11T09:33:56.822Z,18.68
2023-04-11T09:35:10.429Z,18.78
2023-04-11T09:36:21.340Z,18.84
2023-04-11T09:37:24.213Z,19.09
2023-04-11T09:38:32.039Z,18.96
2023-04-11T09:39:35.935Z,18.84
2023-04-11T09:40:43.169Z,19.17
2023-04-11T09:41:47.109Z,18.97
2023-04-11T09:42:57.745Z,18.92
2023-04-11T09:44:01.057Z,18.71
2023-04-11T09:45:04.913Z,18.47
2023-04-11T09:46:12.403Z,18.93
2023-04-11T09:47:16.532Z,18.94
2023-04-11T09:48:21.134Z,19.09
2023-04-11T09:49:24.783Z,19.16
2023-04-11T09:50:29.576Z,18.84
2023-04-11T09:51:36.593Z,18.97
2023-04-11T09:52:43.172Z,18.70
2023-04-11T09:53:47.242Z,18.65
2023-04-11T09:54:52.421Z,18.63
2023-04-11T09:55:56.346Z,18.53
2023-04-11T09:57:00.782Z,18.54
2023-04-11T09:58:06.156Z,18.73
2023-04-11T09:59:10.156Z,18.63
2023-04-11T10:00:18.368Z,18.77
2023-04-11T10:01:22.166Z,18.54
2023-04-11T10:02:27.592Z,18.63
2023-04-11T10:03:34.917Z,18.50
2023-04-11T10:04:38.678Z,18.58
2023-04-11T10:05:43.188Z,18.80
2023-04-11T10:06:54.651Z,18.74
2023-04-11T10:08:05.975Z,19.18
2023-04-11T10:09:11.683Z,19.32
2023-04-11T10:10:21.244Z,19.40
2023-04-11T10:11:24.889Z,19.27
2023-04-11T10:12:31.929Z,19.11
2023-04-11T10:13:42.521Z,18.89
2023-04-11T10:14:45.897Z,18.52
2023-04-11T10:16:08.583Z,19.04
2023-04-11T10:17:13.296Z,18.92
2023-04-11T10:18:18.225Z,19.26
2023-04-11T10:19:24.293Z,19.83
2023-04-11T10:20:46.245Z,19.50
2023-04-11T10:21:48.916Z,19.04
2023-04-11T10:23:02.244Z,18.74
2023-04-11T10:24:09.269Z,18.67
2023-04-11T10:25:20.334Z,18.90
2023-04-11T10:26:50.764Z,18.83
2023-04-11T10:27:54.584Z,18.70
2023-04-11T10:28:58.283Z,18.69
2023-04-11T10:30:01.999Z,18.69
2023-04-11T10:31:10.276Z,18.71
2023-04-11T10:32:19.373Z,18.65
2023-04-11T10:33:26.266Z,19.01
2023-04-11T10:34:29.830Z,18.96
2023-04-11T10:35:32.544Z,18.83
2023-04-11T10:37:03.563Z,18.67
2023-04-11T10:38:53.839Z,18.33
2023-04-11T10:40:10.287Z,18.33
2023-04-11T10:41:19.490Z,18.40
2023-04-11T10:42:29.002Z,18.72
2023-04-11T10:43:31.372Z,18.84
2023-04-11T10:44:34.644Z,18.62
2023-04-11T10:45:40.456Z,18.60
2023-04-11T10:46:48.959Z,18.66
2023-04-11T10:48:11.924Z,18.82
2023-04-11T10:49:33.832Z,18.71
2023-04-11T10:50:42.557Z,18.85
2023-04-11T10:51:46.578Z,18.88
2023-04-11T10:52:49.026Z,18.78
2023-04-11T10:53:52.922Z,18.96
2023-04-11T10:54:55.786Z,18.96
2023-04-11T10:55:59.497Z,19.06
2023-04-11T10:57:02.528Z,18.82
2023-04-11T10:58:07.534Z,18.81
2023-04-11T10:59:57.125Z,19.06
2023-04-11T11:01:37.187Z,18.85
2023-04-11T11:02:47.183Z,18.73
2023-04-11T11:03:57.057Z,18.79
2023-04-11T11:05:03.534Z,18.64
2023-04-11T11:06:08.466Z,18.63
2023-04-11T11:07:15.831Z,18.63
2023-04-11T11:08:30.624Z,18.68
2023-04-11T11:09:35.924Z,18.53
2023-04-11T11:10:40.147Z,18.76
2023-04-11T11:11:44.076Z,19.27
2023-04-11T11:12:54.091Z,19.27
2023-04-11T11:13:57.751Z,19.18
2023-04-11T11:15:13.333Z,18.76
2023-04-11T11:16:17.852Z,18.80
2023-04-11T11:17:20.305Z,18.46
2023-04-11T11:18:24.045Z,18.55
2023-04-11T11:19:27.533Z,18.49
2023-04-11T11:20:31.386Z,18.56
2023-04-11T11:21:34.994Z,18.99
2023-04-11T11:22:37.348Z,18.84
2023-04-11T11:23:41.032Z,18.65
2023-04-11T11:24:43.451Z,18.66
2023-04-11T11:25:55.044Z,18.59
2023-04-11T11:26:59.443Z,18.18
2023-04-11T11:28:04.003Z,18.58
2023-04-11T11:29:08.253Z,18.75
2023-04-11T11:30:11.488Z,19.23
2023-04-11T11:31:16.219Z,19.26
2023-04-11T11:32:29.314Z,19.11
2023-04-11T11:33:34.324Z,19.12
2023-04-11T11:34:37.685Z,19.01
2023-04-11T11:35:42.834Z,18.86
2023-04-11T11:36:47.824Z,19.08
2023-04-11T11:37:52.496Z,19.06
2023-04-11T11:38:56.449Z,19.30
2023-04-11T11:39:59.273Z,19.20
2023-04-11T11:41:03.742Z,18.88
2023-04-11T11:42:07.394Z,18.91
2023-04-11T11:43:09.837Z,19.16
2023-04-11T11:44:23.614Z,19.29
2023-04-11T11:45:28.348Z,19.28
2023-04-11T11:46:33.914Z,19.07
2023-04-11T11:47:43.651Z,19.00
2023-04-11T11:49:00.681Z,19.25
2023-04-11T11:50:04.388Z,19.41
2023-04-11T11:51:09.940Z,19.37
2023-04-11T11:52:12.340Z,18.71
2023-04-11T11:53:17.282Z,18.83
2023-04-11T11:54:19.750Z,18.97
2023-04-11T11:55:34.400Z,18.72
2023-04-11T11:56:38.686Z,18.49
2023-04-11T11:57:45.288Z,18.62
2023-04-11T11:58:49.672Z,18.70
2023-04-11T11:59:56.303Z,18.16
2023-04-11T12:00:59.839Z,18.04
2023-04-11T12:02:04.934Z,18.01
2023-04-11T12:03:11.028Z,17.90
2023-04-11T12:04:15.784Z,18.16
2023-04-11T12:05:19.106Z,18.03
2023-04-11T12:06:24.926Z,17.89
2023-04-11T12:07:30.840Z,18.08
2023-04-11T12:08:34.999Z,18.06
2023-04-11T12:09:37.281Z,17.90
2023-04-11T12:10:42.136Z,18.02
2023-04-11T12:11:46.210Z,18.28
2023-04-11T12:12:53.651Z,18.14
2023-04-11T12:13:58.324Z,17.98
2023-04-11T12:15:01.706Z,18.01
2023-04-11T12:16:05.260Z,18.01
2023-04-11T12:17:09.157Z,17.91
2023-04-11T12:18:12.565Z,17.93
2023-04-11T12:19:16.128Z,17.56
2023-04-11T12:20:22.876Z,17.36
2023-04-11T12:21:27.943Z,17.04
2023-04-11T12:22:30.230Z,16.86
2023-04-11T12:23:33.740Z,16.84
2023-04-11T12:24:35.916Z,16.96
2023-04-11T12:25:39.234Z,16.93
2023-04-11T12:27:02.466Z,16.81
2023-04-11T12:28:06.433Z,16.75
2023-04-11T12:29:10.515Z,16.69
2023-04-11T12:30:15.532Z,16.70
2023-04-11T12:31:20.259Z,16.86
2023-04-11T12:32:24.051Z,17.11
2023-04-11T12:33:28.198Z,17.13
2023-04-11T12:34:31.145Z,16.96
2023-04-11T12:35:35.065Z,17.19
2023-04-11T12:36:38.861Z,17.48
2023-04-11T12:37:42.640Z,17.19
2023-04-11T12:38:46.663Z,16.90
2023-04-11T12:39:49.246Z,16.84
2023-04-11T12:41:00.349Z,16.94
2023-04-11T12:42:12.008Z,16.70
2023-04-11T12:43:15.614Z,16.91
2023-04-11T12:44:18.288Z,17.50
2023-04-11T12:45:21.906Z,17.91
2023-04-11T12:46:24.510Z,17.92
2023-04-11T12:47:28.227Z,17.83
2023-04-11T12:48:31.762Z,17.78
2023-04-11T12:49:34.481Z,17.62
2023-04-11T12:50:38.165Z,17.49
2023-04-11T12:51:42.987Z,17.57
2023-04-11T12:52:45.552Z,17.88
2023-04-11T12:53:48.993Z,17.83
2023-04-11T12:54:51.202Z,17.74
2023-04-11T12:55:55.014Z,18.01
2023-04-11T12:56:58.382Z,18.21
2023-04-11T12:58:02.947Z,18.36
2023-04-11T12:59:05.302Z,18.62
2023-04-11T13:00:11.577Z,18.85
2023-04-11T13:01:16.482Z,18.57
2023-04-11T13:02:21.352Z,18.73
2023-04-11T13:03:25.106Z,18.57
2023-04-11T13:04:28.458Z,18.57
2023-04-11T13:05:32.516Z,18.49
2023-04-11T13:06:36.335Z,18.48
2023-04-11T13:07:40.019Z,18.78
2023-04-11T13:08:43.403Z,18.64
2023-04-11T13:09:46.284Z,18.16
2023-04-11T13:10:50.286Z,18.16
2023-04-11T13:11:52.586Z,18.24
2023-04-11T13:12:58.652Z,18.42
2023-04-11T13:14:03.101Z,18.52
2023-04-11T13:15:08.441Z,18.57
2023-04-11T13:16:12.618Z,18.26
2023-04-11T13:17:15.618Z,17.95
2023-04-11T13:18:19.309Z,17.71
2023-04-11T13:19:22.761Z,17.78
2023-04-11T13:20:26.497Z,18.00
2023-04-11T13:21:29.280Z,18.10
2023-04-11T13:22:32.765Z,17.94
2023-04-11T13:23:38.296Z,17.97
2023-04-11T13:24:41.882Z,18.01
2023-04-11T13:25:45.421Z,17.88
2023-04-11T13:26:48.452Z,17.79
2023-04-11T13:27:51.954Z,17.41
2023-04-11T13:28:54.889Z,17.39
2023-04-11T13:29:58.516Z,17.45
2023-04-11T13:31:02.490Z,17.25
2023-04-11T13:32:05.071Z,17.22
2023-04-11T13:33:09.479Z,17.03
2023-04-11T13:34:11.966Z,16.77
2023-04-11T13:35:15.332Z,16.99
2023-04-11T13:36:17.632Z,16.89
2023-04-11T13:37:21.115Z,16.95
2023-04-11T13:38:25.848Z,16.81
2023-04-11T13:39:29.560Z,16.85
2023-04-11T13:40:32.900Z,16.86
2023-04-11T13:41:35.324Z,16.95
2023-04-11T13:42:39.773Z,16.89
2023-04-11T13:43:42.823Z,16.98
2023-04-11T13:44:47.065Z,17.06
2023-04-11T13:45:50.612Z,17.42
2023-04-11T13:46:54.057Z,17.68
2023-04-11T13:47:58.119Z,17.96
2023-04-11T13:49:01.667Z,17.97
2023-04-11T13:50:05.677Z,18.05
2023-04-11T13:51:09.165Z,18.30
2023-04-11T13:52:12.763Z,18.25
2023-04-11T13:53:15.197Z,17.99